Terminal Aerodrome Forecast
Issued by NWS Wilmington, NC

Home | Current Version | Previous Version | Text Only | Print | Product List | Glossary On
Versions: 1 2 3 4 5 6 7 8 9 10 11 12 13 14 15 16 17 18 19 20 21 22 23 24 25 26 27 28
000
FTUS42 KILM 270200 AAA
TAFFLO
TAF AMD
KFLO 270224Z 2702/2724 00000KT 3SM BR FEW002
      TEMPO 2702/2706 1SM BR
     FM270600 22004KT P6SM SCT080
     FM271400 29013G20KT P6SM SCT050=

USA.gov is the U.S. government's official web portal to all federal, state and local government web resources and services.